Αναφορές METAR

 

LGTS - Thessaloniki/Mik, Greece
Απόσταση από το σταθμό: ΝΝΔ 77km
Ενημερώθηκε: 19/04/2018 12:20
Διάσπαρτα Νέφη
Διάσπαρτα Νέφη
 Ανεμος από μεταβλητός
Ανεμος: μεταβλητός 6 km/h
Θερμοκρασία: 21°C
Σημείο Δρόσου: 9°C
Υγρασία: 46%
Βαρόμετρο: 1023 hPa
Νέφωση: Διάσπαρτα Νέφη
Ορατότητα: 10 km
Λεπτομέρειες νέφωσης: Διάσπαρτα Νέφη 762 m
2018/04/19 09:20 LGTS 190920Z VRB03KT 9999 FEW025 21/09 Q1023 NOSIG
LGKV - Kavala/Chrisoupo, Greece
Απόσταση από το σταθμό: ΑΝΑ 120km
Ενημερώθηκε: 19/04/2018 12:20
Διάσπαρτα Νέφη
Διάσπαρτα Νέφη
 Ανεμος από ΝΔ
Ανεμος: ΝΔ 15 km/h
Θερμοκρασία: 22°C
Σημείο Δρόσου: 12°C
Υγρασία: 53%
Βαρόμετρο: 1023 hPa
Νέφωση: Διάσπαρτα Νέφη
Ορατότητα: 10 km
Λεπτομέρειες νέφωσης: Διάσπαρτα Νέφη 762 m
2018/04/19 09:20 LGKV 190920Z 23008KT 9999 FEW025 22/12 Q1023
 
LGKZ - Kozani (civ/Army, Greece
Απόσταση από το σταθμό: ΝΔ 154km
Ενημερώθηκε: 19/04/2018 11:50
Μερικώς Νεφελώδης
Μερικώς Νεφελώδης
 Ανεμος από ΔΒΔ
Ανεμος: ΔΒΔ 7 km/h
Θερμοκρασία: 14°C
Σημείο Δρόσου: 13°C
Υγρασία: 94%
Βαρόμετρο: 1026 hPa
Νέφωση: Μερικώς Νεφελώδης
Ορατότητα: 10 km
Λεπτομέρειες νέφωσης: Διάσπαρτα Νέφη 762 m
Μερικώς Νεφελώδης 2134 m
2018/04/19 08:50 LGKZ 190850Z 30004KT 9999 FEW025 SCT070 14/13 Q1026
LWSK - Skopje/Petrovac, Macedonia
Απόσταση από το σταθμό: ΔΒΔ 159km
Ενημερώθηκε: 19/04/2018 12:30
Μερικώς Νεφελώδης
Μερικώς Νεφελώδης
 Ανεμος από ΒΔ
Ανεμος: ΒΔ 9 km/h
Θερμοκρασία: 20°C
Σημείο Δρόσου: 10°C
Υγρασία: 53%
Βαρόμετρο: 1026 hPa
Νέφωση: Μερικώς Νεφελώδης
Ορατότητα: 10 km
Λεπτομέρειες νέφωσης: Μερικώς Νεφελώδης 1372 m
2018/04/19 09:30 LWSK 190930Z 32005KT 250V010 9999 SCT045 20/10 Q1026 NOSIG
 
LBSF - Sofia (observato, Bulgaria
Απόσταση από το σταθμό: Β 164km
Ενημερώθηκε: 19/04/2018 12:30
Μερικώς Νεφελώδης
Μερικώς Νεφελώδης
 Ανεμος από ΔΒΔ
Ανεμος: ΔΒΔ 13 km/h
Θερμοκρασία: 18°C
Σημείο Δρόσου: 10°C
Υγρασία: 60%
Βαρόμετρο: 1025 hPa
Νέφωση: Μερικώς Νεφελώδης
Ορατότητα: 10 km
Λεπτομέρειες νέφωσης: Διάσπαρτα Νέφη 975 m
Μερικώς Νεφελώδης 1829 m
2018/04/19 09:30 LBSF 190930Z 30007KT 270V340 9999 FEW032 SCT060 18/10 Q1025 NOSIG
LBPD - Plovdiv, Bulgaria
Απόσταση από το σταθμό: ΒΑ 168km
Ενημερώθηκε: 19/04/2018 12:30
Διάσπαρτα Νέφη
Διάσπαρτα Νέφη
 Ανεμος από Ν
Ανεμος: Ν 7 km/h
Θερμοκρασία: 20°C
Σημείο Δρόσου: 11°C
Υγρασία: 56%
Βαρόμετρο: 1024 hPa
Νέφωση: Διάσπαρτα Νέφη
Ορατότητα: 10 km
Λεπτομέρειες νέφωσης: Διάσπαρτα Νέφη 2164 m
2018/04/19 09:30 LBPD 190930Z AUTO 18004KT 070V220 9999 FEW071/// 20/11 Q1024 NOSIG
 
LWOH - Ohrid, Macedonia
Απόσταση από το σταθμό: Δ 204km
Ενημερώθηκε: 19/04/2018 12:30
Μερικώς Νεφελώδης
Μερικώς Νεφελώδης
 Ανεμος από Ν
Ανεμος: Ν 7 km/h
Θερμοκρασία: 17°C
Σημείο Δρόσου: 9°C
Υγρασία: 59%
Βαρόμετρο: 1025 hPa
Νέφωση: Μερικώς Νεφελώδης
Ορατότητα: 10 km
Λεπτομέρειες νέφωσης: Μερικώς Νεφελώδης 1524 m
2018/04/19 09:30 LWOH 190930Z 18004KT 9999 SCT050 17/09 Q1025
LGLM - Limnos Island Ar, Greece
Απόσταση από το σταθμό: ΝΑ 220km
Ενημερώθηκε: 19/04/2018 12:20
Αίθριος
Αίθριος
 Ανεμος από ΒΑ
Ανεμος: ΒΑ 30 km/h, Ριπή: 48 km/h
Θερμοκρασία: 19°C
Σημείο Δρόσου: 12°C
Υγρασία: 64%
Βαρόμετρο: 1022 hPa
Summary: Αίθριος
Ορατότητα: greater than 10 km
2018/04/19 09:20 LGLM 190920Z 04016G26KT CAVOK 19/12 Q1022
 
LGBL - Nea Anchialos, Greece
Απόσταση από το σταθμό: Ν 221km
Ενημερώθηκε: 19/04/2018 12:20
Διάσπαρτα Νέφη
Διάσπαρτα Νέφη
 Ανεμος από ΝΑ
Ανεμος: ΝΑ 7 km/h
Θερμοκρασία: 23°C
Σημείο Δρόσου: 9°C
Υγρασία: 41%
Βαρόμετρο: 1023 hPa
Νέφωση: Διάσπαρτα Νέφη
Ορατότητα: 10 km
Λεπτομέρειες νέφωσης: Διάσπαρτα Νέφη 914 m
2018/04/19 09:20 LGBL 190920Z 14004KT 9999 FEW030 23/09 Q1023
LGSK - Skiathos Island, Greece
Απόσταση από το σταθμό: Ν 223km
Ενημερώθηκε: 19/04/2018 11:50
Διάσπαρτα Νέφη
Διάσπαρτα Νέφη
 Ανεμος από Β
Ανεμος: Β 11 km/h
Θερμοκρασία: 19°C
Σημείο Δρόσου: 8°C
Υγρασία: 49%
Βαρόμετρο: 1023 hPa
Νέφωση: Διάσπαρτα Νέφη
Ορατότητα: 10 km
Λεπτομέρειες νέφωσης: Διάσπαρτα Νέφη 914 m
2018/04/19 08:50 LGSK 190850Z 01006KT 9999 FEW030 19/08 Q1023
 
LGAL - Alexandroupolis, Greece
Απόσταση από το σταθμό: Α 231km
Ενημερώθηκε: 19/04/2018 12:20
Διάσπαρτα Νέφη
Διάσπαρτα Νέφη
 Ανεμος από ΒΑ
Ανεμος: ΒΑ 19 km/h
Θερμοκρασία: 22°C
Σημείο Δρόσου: 9°C
Υγρασία: 44%
Βαρόμετρο: 1023 hPa
Νέφωση: Διάσπαρτα Νέφη
Ορατότητα: 10 km
Λεπτομέρειες νέφωσης: Διάσπαρτα Νέφη 762 m
2018/04/19 09:20 LGAL 190920Z 04010KT 9999 FEW025 22/09 Q1023
BKPR - Prishtina, Yugoslavia
Απόσταση από το σταθμό: ΒΔ 240km
Ενημερώθηκε: 19/04/2018 12:30
Κυρίως Νεφελώδης
Κυρίως Νεφελώδης
 Ανεμος από Β
Ανεμος: Β 11 km/h
Θερμοκρασία: 16°C
Σημείο Δρόσου: 9°C
Υγρασία: 63%
Βαρόμετρο: 1028 hPa
Νέφωση: Κυρίως Νεφελώδης
Ορατότητα: 10 km
Λεπτομέρειες νέφωσης: Μερικώς Νεφελώδης 914 m
Κυρίως Νεφελώδης 1829 m
2018/04/19 09:30 BKPR 190930Z 36006KT 9999 SCT030 BKN060 16/09 Q1028 NOSIG
 
LGIO - Ioannina, Greece
Απόσταση από το σταθμό: ΝΔ 262km
Ενημερώθηκε: 19/04/2018 12:20
Μερικώς Νεφελώδης
Μερικώς Νεφελώδης
 Ανεμος από μεταβλητός
Ανεμος: μεταβλητός 0 km/h
Θερμοκρασία: 20°C
Σημείο Δρόσου: 6°C
Υγρασία: 40%
Βαρόμετρο: 1023 hPa
Νέφωση: Μερικώς Νεφελώδης
Ορατότητα: 10 km
Λεπτομέρειες νέφωσης: Μερικώς Νεφελώδης 762 m
2018/04/19 09:20 LGIO 190920Z /////KT 9999 SCT025 20/06 Q1023
LYNI - Nis, Yugoslavia
Απόσταση από το σταθμό: ΒΒΔ 262km
Ενημερώθηκε: 19/04/2018 12:30
Κυρίως Νεφελώδης
Κυρίως Νεφελώδης
 Ανεμος από μεταβλητός
Ανεμος: μεταβλητός 6 km/h
Θερμοκρασία: 18°C
Σημείο Δρόσου: 13°C
Υγρασία: 73%
Βαρόμετρο: 1027 hPa
Νέφωση: Κυρίως Νεφελώδης
Ορατότητα: 8 km
Λεπτομέρειες νέφωσης: Διάσπαρτα Νέφη 457 m
Κυρίως Νεφελώδης 610 m
2018/04/19 09:30 LYNI 190930Z VRB03KT 8000 FEW015 BKN020 18/13 Q1027 NOSIG
 
LGSY - Skiros, Greece
Απόσταση από το σταθμό: ΝΝΑ 268km
Ενημερώθηκε: 19/04/2018 11:50
Αίθριος
Αίθριος
 Ανεμος από ΒΒΔ
Ανεμος: ΒΒΔ 20 km/h
Θερμοκρασία: 18°C
Σημείο Δρόσου: 11°C
Υγρασία: 64%
Βαρόμετρο: 1022 hPa
Summary: Αίθριος
Ορατότητα: greater than 10 km
2018/04/19 08:50 LGSY 190850Z 34011KT CAVOK 18/11 Q1022 RMK BKN200 BLU
LATI - Tirana, Albania
Απόσταση από το σταθμό: Δ 290km
Ενημερώθηκε: 19/04/2018 12:50
Αίθριος
Αίθριος
 Ανεμος από μεταβλητός
Ανεμος: μεταβλητός 6 km/h
Θερμοκρασία: 25°C
Σημείο Δρόσου: 13°C
Υγρασία: 47%
Βαρόμετρο: 1023 hPa
Summary: Αίθριος
Ορατότητα: greater than 10 km
2018/04/19 09:50 LATI 190950Z VRB03KT CAVOK 25/13 Q1023 NOSIG
 
LBGO - Gorna Orechovist, Bulgaria
Απόσταση από το σταθμό: ΒΑ 300km
Ενημερώθηκε: 19/04/2018 12:30
Διάσπαρτα Νέφη
Διάσπαρτα Νέφη
 Ανεμος από μεταβλητός
Ανεμος: μεταβλητός 4 km/h
Θερμοκρασία: 19°C
Σημείο Δρόσου: 13°C
Υγρασία: 68%
Βαρόμετρο: 1024 hPa
Νέφωση: Διάσπαρτα Νέφη
Ορατότητα: 10 km
Λεπτομέρειες νέφωσης: Διάσπαρτα Νέφη 1768 m
2018/04/19 09:30 LBGO 190930Z AUTO VRB02KT 9999 FEW058/// 19/13 Q1024 NOSIG
LGPZ - Preveza/Aktion, Greece
Απόσταση από το σταθμό: ΝΔ 328km
Ενημερώθηκε: 19/04/2018 12:20
Διάσπαρτα Νέφη
Διάσπαρτα Νέφη
 Ανεμος από ΒΒΑ
Ανεμος: ΒΒΑ 11 km/h
Θερμοκρασία: 23°C
Σημείο Δρόσου: 15°C
Υγρασία: 61%
Βαρόμετρο: 1022 hPa
Νέφωση: Διάσπαρτα Νέφη
Ορατότητα: 10 km
Λεπτομέρειες νέφωσης: Διάσπαρτα Νέφη 914 m
2018/04/19 09:20 LGPZ 190920Z 03006KT 9999 FEW030 23/15 Q1022
 
LGKR - Ioannis Kapodist, Greece
Απόσταση από το σταθμό: ΔΝΔ 330km
Ενημερώθηκε: 19/04/2018 12:20
Διάσπαρτα Νέφη
Διάσπαρτα Νέφη
 Ανεμος από Ν
Ανεμος: Ν 7 km/h
Θερμοκρασία: 23°C
Σημείο Δρόσου: 17°C
Υγρασία: 69%
Βαρόμετρο: 1022 hPa
Νέφωση: Διάσπαρτα Νέφη
Ορατότητα: 10 km
Λεπτομέρειες νέφωσης: Διάσπαρτα Νέφη 914 m
2018/04/19 09:20 LGKR 190920Z 17004KT 9999 FEW030 23/17 Q1022 NOSIG
LGEL - Elefsis (hel-Afb, Greece
Απόσταση από το σταθμό: Ν 347km
Ενημερώθηκε: 19/04/2018 12:20
Αίθριος
Αίθριος
 Ανεμος από Β
Ανεμος: Β 22 km/h, Ριπή: 41 km/h
Θερμοκρασία: 24°C
Σημείο Δρόσου: 6°C
Υγρασία: 31%
Βαρόμετρο: 1021 hPa
Summary: Αίθριος
Ορατότητα: greater than 10 km
2018/04/19 09:20 LGEL 190920Z 35012G22KT CAVOK 24/06 Q1021


 ♦     ♦     ♦     Ποτέ μη βασίζετε κρίσιμες αποφάσεις σ'αυτές ή οποιεσδήποτε πληροφορίες καιρού από το Internet     ♦     ♦     ♦